createdAt,value
2022-11-19T00:02:55.154Z,82.94
2022-11-19T00:07:57.848Z,83.03
2022-11-19T00:13:00.567Z,83.32
2022-11-19T00:18:06.852Z,83.37
2022-11-19T00:23:09.571Z,83.42
2022-11-19T00:28:12.349Z,83.50
2022-11-19T00:33:15.151Z,83.91
2022-11-19T00:38:17.950Z,84.05
2022-11-19T00:43:39.583Z,84.02
2022-11-19T00:48:43.017Z,84.08
2022-11-19T00:53:45.803Z,84.25
2022-11-19T00:58:48.873Z,84.39
2022-11-19T01:03:52.253Z,84.61
2022-11-19T01:08:55.242Z,84.30
2022-11-19T01:13:59.274Z,84.61
2022-11-19T01:19:02.712Z,84.78
2022-11-19T01:24:06.829Z,84.89
2022-11-19T01:29:09.636Z,85.13
2022-11-19T01:34:12.431Z,85.48
2022-11-19T01:39:15.227Z,85.66
2022-11-19T01:45:00.152Z,85.57
2022-11-19T01:50:03.263Z,85.50
2022-11-19T01:55:08.370Z,85.73
2022-11-19T02:00:11.999Z,85.82
2022-11-19T02:05:15.531Z,85.67
2022-11-19T02:10:18.655Z,85.30
2022-11-19T02:15:40.593Z,85.46
2022-11-19T02:21:13.919Z,85.53
2022-11-19T02:26:25.759Z,85.54
2022-11-19T02:31:41.202Z,85.72
2022-11-19T02:37:10.214Z,85.84
2022-11-19T02:42:22.425Z,85.68
2022-11-19T02:47:31.192Z,85.30
2022-11-19T02:52:35.736Z,84.69
2022-11-19T02:57:38.536Z,84.64
2022-11-19T03:03:12.888Z,84.31
2022-11-19T03:08:16.312Z,84.38
2022-11-19T03:13:45.106Z,84.56
2022-11-19T03:18:54.981Z,84.90
2022-11-19T03:24:02.078Z,85.35
2022-11-19T03:29:10.930Z,86.12
2022-11-19T03:34:19.155Z,85.83
2022-11-19T03:39:23.205Z,85.89
2022-11-19T03:44:33.128Z,85.82
2022-11-19T03:49:41.157Z,85.81
2022-11-19T03:54:44.067Z,85.86
2022-11-19T03:59:47.396Z,85.97
2022-11-19T04:04:50.083Z,85.99
2022-11-19T04:09:52.862Z,85.86
2022-11-19T04:14:55.586Z,85.89
2022-11-19T04:19:58.353Z,86.01
2022-11-19T04:25:01.115Z,86.11
2022-11-19T04:30:05.396Z,86.01
2022-11-19T04:35:09.088Z,86.12
2022-11-19T04:40:13.035Z,86.06
2022-11-19T04:45:15.791Z,86.32
2022-11-19T04:50:19.039Z,86.28
2022-11-19T04:55:21.810Z,86.34
2022-11-19T05:00:24.697Z,86.60
2022-11-19T05:05:27.446Z,86.42
2022-11-19T05:10:30.304Z,86.06
2022-11-19T05:15:33.103Z,86.01
2022-11-19T05:20:36.011Z,86.30
2022-11-19T05:25:39.026Z,86.56
2022-11-19T05:30:41.815Z,86.84
2022-11-19T05:35:44.525Z,87.32
2022-11-19T05:40:47.211Z,87.57
2022-11-19T05:45:49.972Z,88.09
2022-11-19T05:50:52.737Z,88.62
2022-11-19T05:55:55.436Z,88.87
2022-11-19T06:00:59.865Z,89.06
2022-11-19T06:06:02.695Z,88.97
2022-11-19T06:11:05.661Z,88.99
2022-11-19T06:16:08.393Z,88.83
2022-11-19T06:21:12.429Z,88.93
2022-11-19T06:26:26.561Z,89.03
2022-11-19T06:31:29.331Z,89.03
2022-11-19T06:36:38.919Z,89.04
2022-11-19T06:41:43.980Z,88.65
2022-11-19T06:46:46.777Z,88.58
2022-11-19T06:51:49.559Z,88.30
2022-11-19T06:56:52.260Z,87.90
2022-11-19T07:01:55.296Z,87.75
2022-11-19T07:06:58.732Z,87.72
2022-11-19T07:12:02.058Z,87.52
2022-11-19T07:17:05.699Z,87.40
2022-11-19T07:22:08.540Z,87.08
2022-11-19T07:27:11.223Z,86.51
2022-11-19T07:32:13.956Z,85.98
2022-11-19T07:37:16.794Z,85.75
2022-11-19T07:42:38.364Z,85.40
2022-11-19T07:47:41.094Z,85.13
2022-11-19T07:52:44.103Z,84.62
2022-11-19T07:57:46.895Z,84.63
2022-11-19T08:02:50.315Z,84.55
2022-11-19T08:07:53.523Z,84.22
2022-11-19T08:13:05.097Z,84.69
2022-11-19T08:18:13.955Z,85.02
2022-11-19T08:23:17.082Z,85.35
2022-11-19T08:28:19.884Z,85.24
2022-11-19T08:33:22.843Z,84.76
2022-11-19T08:38:25.582Z,83.88
2022-11-19T08:43:28.508Z,82.57
2022-11-19T08:48:31.400Z,81.36
2022-11-19T08:53:34.196Z,80.41
2022-11-19T08:58:37.117Z,79.63
2022-11-19T09:03:40.118Z,78.12
2022-11-19T09:08:43.346Z,77.37
2022-11-19T09:13:46.512Z,75.59
2022-11-19T09:18:49.556Z,71.10
2022-11-19T09:23:52.851Z,66.88
2022-11-19T09:28:55.597Z,63.75
2022-11-19T09:33:58.864Z,59.52
2022-11-19T09:39:02.381Z,56.69
2022-11-19T09:44:05.081Z,54.74
2022-11-19T09:49:17.304Z,51.13
2022-11-19T09:54:22.839Z,47.89
2022-11-19T09:59:35.504Z,44.65
2022-11-19T10:04:38.566Z,43.98
2022-11-19T10:09:55.341Z,42.56
2022-11-19T10:15:01.125Z,43.35
2022-11-19T10:20:41.649Z,45.66
2022-11-19T10:25:50.189Z,49.49
2022-11-19T10:31:00.074Z,53.58
2022-11-19T10:36:09.414Z,57.21
2022-11-19T10:41:30.390Z,59.44
2022-11-19T10:46:34.079Z,61.72
2022-11-19T10:51:41.521Z,63.81
2022-11-19T10:56:44.632Z,64.18
2022-11-19T11:01:50.710Z,64.11
2022-11-19T11:07:05.056Z,62.86
2022-11-19T11:12:34.121Z,62.26
2022-11-19T11:17:38.763Z,63.54
2022-11-19T11:22:43.085Z,64.46
2022-11-19T11:27:45.883Z,65.66
2022-11-19T11:32:48.685Z,66.79
2022-11-19T11:37:51.605Z,68.08
2022-11-19T11:42:55.095Z,68.33
2022-11-19T11:48:03.957Z,68.28
2022-11-19T11:53:10.122Z,68.42
2022-11-19T11:58:34.427Z,69.04
2022-11-19T12:03:55.171Z,69.59
2022-11-19T12:09:37.593Z,69.56
2022-11-19T12:14:53.376Z,69.02
2022-11-19T12:20:20.360Z,69.21
2022-11-19T12:25:44.575Z,69.60
2022-11-19T12:31:21.369Z,70.14
2022-11-19T12:37:01.158Z,69.26
2022-11-19T12:42:13.058Z,68.03
2022-11-19T12:47:44.846Z,68.00
2022-11-19T12:53:22.761Z,69.47
2022-11-19T12:58:32.102Z,71.65
2022-11-19T13:03:49.052Z,72.50
2022-11-19T13:09:36.602Z,73.65
2022-11-19T13:14:44.044Z,75.06
2022-11-19T13:19:56.245Z,76.07
2022-11-19T13:25:05.035Z,76.28
2022-11-19T13:30:18.549Z,76.30
2022-11-19T13:35:21.661Z,76.75
2022-11-19T13:40:43.425Z,77.07
2022-11-19T13:46:03.274Z,77.36
2022-11-19T13:51:12.432Z,77.43
2022-11-19T13:56:17.886Z,77.50
2022-11-19T14:01:44.456Z,77.60
2022-11-19T14:07:10.632Z,77.52
2022-11-19T14:12:51.682Z,77.51
2022-11-19T14:18:33.357Z,77.11
2022-11-19T14:24:08.282Z,76.84
2022-11-19T14:29:26.037Z,77.06
2022-11-19T14:34:32.114Z,76.93
2022-11-19T14:39:42.694Z,76.72
2022-11-19T14:45:03.722Z,76.57
2022-11-19T14:50:25.767Z,76.76
2022-11-19T14:55:30.522Z,76.76
2022-11-19T15:00:39.106Z,77.05
2022-11-19T15:05:45.224Z,78.07
2022-11-19T15:11:09.469Z,78.85
2022-11-19T15:16:34.118Z,79.23
2022-11-19T15:22:05.465Z,79.18
2022-11-19T15:27:24.411Z,79.26
2022-11-19T15:32:52.198Z,78.66
2022-11-19T15:38:20.559Z,78.29
2022-11-19T15:43:37.860Z,78.75
2022-11-19T15:49:25.596Z,79.41
2022-11-19T15:54:39.638Z,79.93
2022-11-19T15:59:44.926Z,79.68
2022-11-19T16:04:50.540Z,79.45
2022-11-19T16:09:54.468Z,79.28
2022-11-19T16:15:16.012Z,79.23
2022-11-19T16:20:22.635Z,79.22
2022-11-19T16:25:33.474Z,79.55
2022-11-19T16:30:59.785Z,80.59
2022-11-19T16:36:15.508Z,81.83
2022-11-19T16:41:40.004Z,83.58
2022-11-19T16:46:43.185Z,85.45
2022-11-19T16:51:53.708Z,86.97
2022-11-19T16:56:56.731Z,88.41
2022-11-19T17:02:00.078Z,89.63
2022-11-19T17:07:03.088Z,90.18
2022-11-19T17:12:22.739Z,90.82
2022-11-19T17:17:40.776Z,90.89
2022-11-19T17:22:43.939Z,91.09
2022-11-19T17:27:53.251Z,91.49
2022-11-19T17:32:59.743Z,91.74
2022-11-19T17:38:12.588Z,92.09
2022-11-19T17:43:38.931Z,92.55
2022-11-19T17:48:44.197Z,92.68
2022-11-19T17:53:48.012Z,92.78
2022-11-19T17:58:51.007Z,93.01
2022-11-19T18:03:54.034Z,93.26
2022-11-19T18:08:57.134Z,93.78
2022-11-19T18:14:02.029Z,93.90
2022-11-19T18:19:22.910Z,94.00
2022-11-19T18:24:26.224Z,93.82
2022-11-19T18:29:32.587Z,93.76
2022-11-19T18:34:35.315Z,93.21
2022-11-19T18:39:38.249Z,93.17
2022-11-19T18:44:43.527Z,93.78
2022-11-19T18:49:46.584Z,94.56
2022-11-19T18:54:49.375Z,94.85
2022-11-19T18:59:52.094Z,94.69
2022-11-19T19:04:54.914Z,94.98
2022-11-19T19:09:59.208Z,95.46
2022-11-19T19:15:02.125Z,95.94
2022-11-19T19:20:05.659Z,96.05
2022-11-19T19:25:09.246Z,96.07
2022-11-19T19:30:12.963Z,95.79
2022-11-19T19:35:15.751Z,96.03
2022-11-19T19:40:18.477Z,96.02
2022-11-19T19:45:21.202Z,95.67
2022-11-19T19:50:23.977Z,95.61
2022-11-19T19:55:27.029Z,95.09
2022-11-19T20:00:29.787Z,94.68
2022-11-19T20:05:32.614Z,94.32
2022-11-19T20:10:36.123Z,94.11
2022-11-19T20:15:40.355Z,93.74
2022-11-19T20:20:43.172Z,93.68
2022-11-19T20:25:46.062Z,93.36
2022-11-19T20:30:48.863Z,93.34
2022-11-19T20:35:52.816Z,92.37
2022-11-19T20:41:00.817Z,92.36
2022-11-19T20:46:09.225Z,92.24
2022-11-19T20:51:13.201Z,91.68
2022-11-19T20:56:15.979Z,91.15
2022-11-19T21:01:18.772Z,90.61
2022-11-19T21:06:22.195Z,90.84
2022-11-19T21:11:25.517Z,91.00
2022-11-19T21:16:32.932Z,91.24
2022-11-19T21:21:35.641Z,91.85
2022-11-19T21:26:38.400Z,91.98
2022-11-19T21:31:46.436Z,92.28
2022-11-19T21:36:49.797Z,92.35
2022-11-19T21:41:52.582Z,92.35
2022-11-19T21:46:55.358Z,92.41
2022-11-19T21:51:58.577Z,92.40
2022-11-19T21:57:01.371Z,93.06
2022-11-19T22:02:04.175Z,93.16
2022-11-19T22:07:07.026Z,93.25
2022-11-19T22:12:09.979Z,93.58
2022-11-19T22:17:12.785Z,93.47
2022-11-19T22:22:15.472Z,93.50
2022-11-19T22:27:18.287Z,93.86
2022-11-19T22:32:21.290Z,93.96
2022-11-19T22:37:24.008Z,93.88
2022-11-19T22:42:27.611Z,93.39
2022-11-19T22:47:30.300Z,93.21
2022-11-19T22:52:33.213Z,93.35
2022-11-19T22:57:35.914Z,93.38
2022-11-19T23:02:39.353Z,92.96
2022-11-19T23:07:42.081Z,92.86
2022-11-19T23:13:03.775Z,92.07
2022-11-19T23:18:06.561Z,91.95
2022-11-19T23:23:09.274Z,91.40
2022-11-19T23:28:13.245Z,90.71
2022-11-19T23:33:15.956Z,89.95
2022-11-19T23:38:18.667Z,89.68
2022-11-19T23:43:21.414Z,89.29
2022-11-19T23:48:24.205Z,88.83
2022-11-19T23:53:27.011Z,88.48
2022-11-19T23:58:30.103Z,87.52
